sensor_id;sensor_type;location;lat;lon;timestamp;noise_LAeq;noise_LA_min;noise_LA_max;noise_LA01;noise_LA95
74470;Laerm;62918;55.706;37.816;2023-04-24T00:00:05;55.14;51.38;59.63;;
74470;Laerm;62918;55.706;37.816;2023-04-24T00:00:37;53.94;50.56;56.53;;
74470;Laerm;62918;55.706;37.816;2023-04-24T00:01:11;55.54;51.58;59.09;;
74470;Laerm;62918;55.706;37.816;2023-04-24T00:01:43;54.54;51.03;63.68;;
74470;Laerm;62918;55.706;37.816;2023-04-24T00:02:13;54.63;52.01;58.39;;
74470;Laerm;62918;55.706;37.816;2023-04-24T00:02:45;58.54;52.82;64.54;;
74470;Laerm;62918;55.706;37.816;2023-04-24T00:03:18;54.17;51.34;57.40;;
74470;Laerm;62918;55.706;37.816;2023-04-24T00:03:51;58.41;51.07;67.43;;
74470;Laerm;62918;55.706;37.816;2023-04-24T00:04:21;53.80;50.68;58.94;;
74470;Laerm;62918;55.706;37.816;2023-04-24T00:04:56;55.84;51.73;60.31;;
74470;Laerm;62918;55.706;37.816;2023-04-24T00:05:26;54.17;51.66;56.71;;
74470;Laerm;62918;55.706;37.816;2023-04-24T00:05:57;57.69;52.31;62.02;;
74470;Laerm;62918;55.706;37.816;2023-04-24T00:06:29;53.49;50.28;56.81;;
74470;Laerm;62918;55.706;37.816;2023-04-24T00:07:03;56.36;50.68;63.60;;
74470;Laerm;62918;55.706;37.816;2023-04-24T00:07:34;53.21;51.10;55.64;;
74470;Laerm;62918;55.706;37.816;2023-04-24T00:08:05;53.26;51.10;55.45;;
74470;Laerm;62918;55.706;37.816;2023-04-24T00:08:36;56.03;50.71;63.05;;
74470;Laerm;62918;55.706;37.816;2023-04-24T00:09:07;58.14;52.16;66.79;;
74470;Laerm;62918;55.706;37.816;2023-04-24T00:09:37;56.75;52.86;60.22;;
74470;Laerm;62918;55.706;37.816;2023-04-24T00:10:08;60.06;53.66;66.39;;
74470;Laerm;62918;55.706;37.816;2023-04-24T00:10:39;56.98;52.06;62.47;;
74470;Laerm;62918;55.706;37.816;2023-04-24T00:11:10;59.81;53.95;65.49;;
74470;Laerm;62918;55.706;37.816;2023-04-24T00:11:41;59.36;54.12;63.30;;
74470;Laerm;62918;55.706;37.816;2023-04-24T00:12:11;59.69;54.01;65.88;;
74470;Laerm;62918;55.706;37.816;2023-04-24T00:12:42;57.06;53.42;62.05;;
74470;Laerm;62918;55.706;37.816;2023-04-24T00:13:12;55.68;52.36;61.29;;
74470;Laerm;62918;55.706;37.816;2023-04-24T00:13:43;61.46;53.05;68.44;;
74470;Laerm;62918;55.706;37.816;2023-04-24T00:14:13;58.04;54.37;61.41;;
74470;Laerm;62918;55.706;37.816;2023-04-24T00:14:44;55.71;52.84;60.44;;
74470;Laerm;62918;55.706;37.816;2023-04-24T00:15:15;59.46;52.64;70.71;;
74470;Laerm;62918;55.706;37.816;2023-04-24T00:15:45;60.83;54.55;68.04;;
74470;Laerm;62918;55.706;37.816;2023-04-24T00:16:16;56.56;51.50;65.04;;
74470;Laerm;62918;55.706;37.816;2023-04-24T00:16:46;59.58;53.30;66.28;;
74470;Laerm;62918;55.706;37.816;2023-04-24T00:17:17;60.85;54.72;67.73;;
74470;Laerm;62918;55.706;37.816;2023-04-24T00:17:51;55.91;51.42;64.20;;
74470;Laerm;62918;55.706;37.816;2023-04-24T00:18:23;62.03;54.85;68.94;;
74470;Laerm;62918;55.706;37.816;2023-04-24T00:18:54;56.56;51.64;63.91;;
74470;Laerm;62918;55.706;37.816;2023-04-24T00:19:25;57.20;52.03;62.25;;
74470;Laerm;62918;55.706;37.816;2023-04-24T00:19:56;58.12;52.18;65.80;;
74470;Laerm;62918;55.706;37.816;2023-04-24T00:20:28;54.20;50.74;59.94;;
74470;Laerm;62918;55.706;37.816;2023-04-24T00:21:17;54.10;50.99;64.98;;
74470;Laerm;62918;55.706;37.816;2023-04-24T00:21:48;62.17;52.96;66.35;;
74470;Laerm;62918;55.706;37.816;2023-04-24T00:22:22;57.22;52.25;65.61;;
74470;Laerm;62918;55.706;37.816;2023-04-24T00:22:52;59.82;53.38;69.11;;
74470;Laerm;62918;55.706;37.816;2023-04-24T00:23:23;61.73;54.01;67.63;;
74470;Laerm;62918;55.706;37.816;2023-04-24T00:23:53;58.34;51.45;66.74;;
74470;Laerm;62918;55.706;37.816;2023-04-24T00:24:24;56.38;50.20;65.76;;
74470;Laerm;62918;55.706;37.816;2023-04-24T00:24:54;55.65;51.48;64.02;;
74470;Laerm;62918;55.706;37.816;2023-04-24T00:25:25;57.13;51.29;62.46;;
74470;Laerm;62918;55.706;37.816;2023-04-24T00:25:56;54.16;51.29;57.30;;
74470;Laerm;62918;55.706;37.816;2023-04-24T00:26:26;58.57;51.76;76.94;;
74470;Laerm;62918;55.706;37.816;2023-04-24T00:26:57;58.19;51.30;65.03;;
74470;Laerm;62918;55.706;37.816;2023-04-24T00:27:28;55.06;50.88;63.55;;
74470;Laerm;62918;55.706;37.816;2023-04-24T00:27:58;57.00;51.73;64.36;;
74470;Laerm;62918;55.706;37.816;2023-04-24T00:28:29;55.20;51.73;60.88;;
74470;Laerm;62918;55.706;37.816;2023-04-24T00:29:00;55.02;50.83;59.28;;
74470;Laerm;62918;55.706;37.816;2023-04-24T00:29:30;59.05;54.35;65.22;;
74470;Laerm;62918;55.706;37.816;2023-04-24T00:30:01;53.95;51.28;58.11;;
74470;Laerm;62918;55.706;37.816;2023-04-24T00:30:32;53.25;50.63;58.98;;
74470;Laerm;62918;55.706;37.816;2023-04-24T00:31:02;54.39;51.43;60.36;;
74470;Laerm;62918;55.706;37.816;2023-04-24T00:31:33;57.86;52.98;61.63;;
74470;Laerm;62918;55.706;37.816;2023-04-24T00:32:07;56.82;51.48;63.94;;
74470;Laerm;62918;55.706;37.816;2023-04-24T00:32:37;58.54;52.48;67.56;;
74470;Laerm;62918;55.706;37.816;2023-04-24T00:33:08;53.18;50.75;56.38;;
74470;Laerm;62918;55.706;37.816;2023-04-24T00:33:39;63.47;52.66;72.21;;
74470;Laerm;62918;55.706;37.816;2023-04-24T00:34:10;57.20;52.09;61.42;;
74470;Laerm;62918;55.706;37.816;2023-04-24T00:34:42;53.07;50.09;58.01;;
74470;Laerm;62918;55.706;37.816;2023-04-24T00:35:12;58.30;50.64;63.76;;
74470;Laerm;62918;55.706;37.816;2023-04-24T00:35:43;55.38;50.94;60.59;;
74470;Laerm;62918;55.706;37.816;2023-04-24T00:36:13;62.14;57.42;67.37;;
74470;Laerm;62918;55.706;37.816;2023-04-24T00:36:45;60.35;56.32;68.03;;
74470;Laerm;62918;55.706;37.816;2023-04-24T00:37:16;58.73;54.10;62.42;;
74470;Laerm;62918;55.706;37.816;2023-04-24T00:37:47;57.08;54.13;61.08;;
74470;Laerm;62918;55.706;37.816;2023-04-24T00:38:18;63.38;53.59;77.05;;
74470;Laerm;62918;55.706;37.816;2023-04-24T00:38:48;56.67;51.63;75.46;;
74470;Laerm;62918;55.706;37.816;2023-04-24T00:39:19;63.94;50.79;79.09;;
74470;Laerm;62918;55.706;37.816;2023-04-24T00:39:50;72.04;54.11;86.69;;
74470;Laerm;62918;55.706;37.816;2023-04-24T00:40:20;53.67;49.58;57.04;;
74470;Laerm;62918;55.706;37.816;2023-04-24T00:40:51;50.71;47.28;59.05;;
74470;Laerm;62918;55.706;37.816;2023-04-24T00:41:22;54.63;47.48;64.07;;
74470;Laerm;62918;55.706;37.816;2023-04-24T00:41:53;54.47;47.98;66.96;;
74470;Laerm;62918;55.706;37.816;2023-04-24T00:42:24;50.95;47.19;58.24;;
74470;Laerm;62918;55.706;37.816;2023-04-24T00:42:54;57.75;48.28;63.00;;
74470;Laerm;62918;55.706;37.816;2023-04-24T00:43:25;52.55;48.27;58.47;;
74470;Laerm;62918;55.706;37.816;2023-04-24T00:43:56;51.67;48.91;53.93;;
74470;Laerm;62918;55.706;37.816;2023-04-24T00:44:27;52.62;49.18;55.30;;
74470;Laerm;62918;55.706;37.816;2023-04-24T00:44:58;52.67;49.98;64.89;;
74470;Laerm;62918;55.706;37.816;2023-04-24T00:45:29;59.14;51.06;67.63;;
74470;Laerm;62918;55.706;37.816;2023-04-24T00:46:01;56.53;50.80;64.19;;
74470;Laerm;62918;55.706;37.816;2023-04-24T00:46:32;55.35;50.99;61.07;;
74470;Laerm;62918;55.706;37.816;2023-04-24T00:47:02;60.53;51.29;68.30;;
74470;Laerm;62918;55.706;37.816;2023-04-24T00:47:33;61.80;49.28;69.88;;
74470;Laerm;62918;55.706;37.816;2023-04-24T00:48:04;52.81;49.53;57.72;;
74470;Laerm;62918;55.706;37.816;2023-04-24T00:48:35;51.92;50.09;54.78;;
74470;Laerm;62918;55.706;37.816;2023-04-24T00:49:06;55.67;50.22;65.18;;
74470;Laerm;62918;55.706;37.816;2023-04-24T00:49:36;55.78;50.82;64.35;;
74470;Laerm;62918;55.706;37.816;2023-04-24T00:50:07;59.03;52.30;64.55;;
74470;Laerm;62918;55.706;37.816;2023-04-24T00:50:38;56.91;50.96;64.77;;
74470;Laerm;62918;55.706;37.816;2023-04-24T00:51:09;60.66;54.84;65.16;;
74470;Laerm;62918;55.706;37.816;2023-04-24T00:51:40;59.07;50.78;64.98;;
74470;Laerm;62918;55.706;37.816;2023-04-24T00:52:15;55.54;50.78;60.50;;
74470;Laerm;62918;55.706;37.816;2023-04-24T00:52:48;52.63;50.13;55.16;;
74470;Laerm;62918;55.706;37.816;2023-04-24T00:53:19;59.27;51.34;63.92;;
74470;Laerm;62918;55.706;37.816;2023-04-24T00:53:50;58.41;53.07;63.87;;
74470;Laerm;62918;55.706;37.816;2023-04-24T00:54:22;58.91;51.49;64.70;;
74470;Laerm;62918;55.706;37.816;2023-04-24T00:54:52;54.88;49.57;60.08;;
74470;Laerm;62918;55.706;37.816;2023-04-24T00:55:24;53.57;50.41;58.27;;
74470;Laerm;62918;55.706;37.816;2023-04-24T00:55:55;56.22;49.84;64.13;;
74470;Laerm;62918;55.706;37.816;2023-04-24T00:56:27;53.24;50.33;56.35;;
74470;Laerm;62918;55.706;37.816;2023-04-24T00:56:58;54.98;51.39;59.53;;
74470;Laerm;62918;55.706;37.816;2023-04-24T00:57:28;54.13;50.72;59.31;;
74470;Laerm;62918;55.706;37.816;2023-04-24T00:57:59;55.28;50.80;59.68;;
74470;Laerm;62918;55.706;37.816;2023-04-24T00:58:30;51.96;49.21;55.00;;
74470;Laerm;62918;55.706;37.816;2023-04-24T00:59:01;51.57;49.01;53.54;;
74470;Laerm;62918;55.706;37.816;2023-04-24T00:59:32;51.32;48.95;53.35;;
74470;Laerm;62918;55.706;37.816;2023-04-24T01:00:04;51.57;49.22;54.82;;
74470;Laerm;62918;55.706;37.816;2023-04-24T01:00:36;52.11;49.46;58.38;;
74470;Laerm;62918;55.706;37.816;2023-04-24T01:01:07;54.76;48.21;62.38;;
74470;Laerm;62918;55.706;37.816;2023-04-24T01:01:39;60.53;51.43;68.98;;
74470;Laerm;62918;55.706;37.816;2023-04-24T01:02:13;52.08;49.26;55.55;;
74470;Laerm;62918;55.706;37.816;2023-04-24T01:02:45;53.71;50.44;58.23;;
74470;Laerm;62918;55.706;37.816;2023-04-24T01:03:16;57.46;50.62;62.72;;
74470;Laerm;62918;55.706;37.816;2023-04-24T01:03:49;56.75;51.27;64.51;;
74470;Laerm;62918;55.706;37.816;2023-04-24T01:04:21;56.61;50.38;65.11;;
74470;Laerm;62918;55.706;37.816;2023-04-24T01:04:52;56.49;51.15;61.11;;
74470;Laerm;62918;55.706;37.816;2023-04-24T01:05:22;60.08;51.20;69.74;;
74470;Laerm;62918;55.706;37.816;2023-04-24T01:05:54;52.53;49.38;55.78;;
74470;Laerm;62918;55.706;37.816;2023-04-24T01:06:28;52.40;49.84;55.07;;
74470;Laerm;62918;55.706;37.816;2023-04-24T01:06:59;54.07;50.63;57.93;;
74470;Laerm;62918;55.706;37.816;2023-04-24T01:07:30;55.31;51.84;59.73;;
74470;Laerm;62918;55.706;37.816;2023-04-24T01:08:02;60.69;51.91;67.05;;
74470;Laerm;62918;55.706;37.816;2023-04-24T01:08:34;54.95;50.79;62.55;;
74470;Laerm;62918;55.706;37.816;2023-04-24T01:09:06;55.81;52.33;60.14;;
74470;Laerm;62918;55.706;37.816;2023-04-24T01:09:41;52.42;49.73;55.82;;
74470;Laerm;62918;55.706;37.816;2023-04-24T01:10:15;53.49;49.74;59.38;;
74470;Laerm;62918;55.706;37.816;2023-04-24T01:10:47;53.75;49.90;58.92;;
74470;Laerm;62918;55.706;37.816;2023-04-24T01:11:19;54.03;50.35;59.62;;
74470;Laerm;62918;55.706;37.816;2023-04-24T01:11:51;58.14;51.53;64.91;;
74470;Laerm;62918;55.706;37.816;2023-04-24T01:12:21;54.50;50.06;60.44;;
74470;Laerm;62918;55.706;37.816;2023-04-24T01:12:52;54.12;50.07;59.41;;
74470;Laerm;62918;55.706;37.816;2023-04-24T01:13:23;56.97;51.81;61.68;;
74470;Laerm;62918;55.706;37.816;2023-04-24T01:13:54;57.78;52.08;62.72;;
74470;Laerm;62918;55.706;37.816;2023-04-24T01:14:25;58.52;54.01;62.70;;
74470;Laerm;62918;55.706;37.816;2023-04-24T01:14:56;60.88;54.99;66.84;;
74470;Laerm;62918;55.706;37.816;2023-04-24T01:15:27;56.13;52.70;60.77;;
74470;Laerm;62918;55.706;37.816;2023-04-24T01:15:58;61.94;55.01;67.69;;
74470;Laerm;62918;55.706;37.816;2023-04-24T01:16:28;56.92;50.34;64.99;;
74470;Laerm;62918;55.706;37.816;2023-04-24T01:16:59;56.19;50.59;65.56;;
74470;Laerm;62918;55.706;37.816;2023-04-24T01:17:30;59.20;52.95;63.99;;
74470;Laerm;62918;55.706;37.816;2023-04-24T01:18:02;52.84;50.15;56.44;;
74470;Laerm;62918;55.706;37.816;2023-04-24T01:18:32;52.17;49.63;55.33;;
74470;Laerm;62918;55.706;37.816;2023-04-24T01:19:05;61.26;51.92;68.24;;
74470;Laerm;62918;55.706;37.816;2023-04-24T01:19:37;53.08;49.38;57.77;;
74470;Laerm;62918;55.706;37.816;2023-04-24T01:20:09;52.79;49.81;56.33;;
74470;Laerm;62918;55.706;37.816;2023-04-24T01:20:42;55.48;51.03;60.95;;
74470;Laerm;62918;55.706;37.816;2023-04-24T01:21:15;57.98;53.22;64.60;;
74470;Laerm;62918;55.706;37.816;2023-04-24T01:21:47;62.40;51.64;68.84;;
74470;Laerm;62918;55.706;37.816;2023-04-24T01:22:18;55.95;51.07;62.45;;
74470;Laerm;62918;55.706;37.816;2023-04-24T01:22:48;52.90;49.52;56.75;;
74470;Laerm;62918;55.706;37.816;2023-04-24T01:23:19;57.88;52.00;63.79;;
74470;Laerm;62918;55.706;37.816;2023-04-24T01:23:50;55.11;50.16;60.78;;
74470;Laerm;62918;55.706;37.816;2023-04-24T01:24:21;53.09;50.90;55.00;;
74470;Laerm;62918;55.706;37.816;2023-04-24T01:24:53;54.44;50.86;58.88;;
74470;Laerm;62918;55.706;37.816;2023-04-24T01:25:25;52.19;49.45;54.51;;
74470;Laerm;62918;55.706;37.816;2023-04-24T01:25:56;52.08;49.24;54.21;;
74470;Laerm;62918;55.706;37.816;2023-04-24T01:26:27;56.28;49.58;65.31;;
74470;Laerm;62918;55.706;37.816;2023-04-24T01:26:57;54.92;50.20;61.46;;
74470;Laerm;62918;55.706;37.816;2023-04-24T01:27:28;57.26;50.18;62.90;;
74470;Laerm;62918;55.706;37.816;2023-04-24T01:27:59;59.55;53.72;65.51;;
74470;Laerm;62918;55.706;37.816;2023-04-24T01:28:30;59.86;50.99;69.25;;
74470;Laerm;62918;55.706;37.816;2023-04-24T01:29:01;57.90;50.54;64.44;;
74470;Laerm;62918;55.706;37.816;2023-04-24T01:29:31;56.80;49.95;61.82;;
74470;Laerm;62918;55.706;37.816;2023-04-24T01:30:03;54.54;50.64;73.32;;
74470;Laerm;62918;55.706;37.816;2023-04-24T01:30:36;53.49;49.05;60.18;;
74470;Laerm;62918;55.706;37.816;2023-04-24T01:31:07;56.47;51.32;61.32;;
74470;Laerm;62918;55.706;37.816;2023-04-24T01:31:39;53.29;50.99;55.59;;
74470;Laerm;62918;55.706;37.816;2023-04-24T01:32:09;53.44;50.84;55.70;;
74470;Laerm;62918;55.706;37.816;2023-04-24T01:32:41;56.06;52.08;59.18;;
74470;Laerm;62918;55.706;37.816;2023-04-24T01:33:15;59.98;53.61;64.28;;
74470;Laerm;62918;55.706;37.816;2023-04-24T01:33:45;59.79;56.61;63.25;;
74470;Laerm;62918;55.706;37.816;2023-04-24T01:34:17;59.39;54.82;67.42;;
74470;Laerm;62918;55.706;37.816;2023-04-24T01:34:48;55.71;50.92;66.12;;
74470;Laerm;62918;55.706;37.816;2023-04-24T01:35:19;56.08;51.78;61.58;;
74470;Laerm;62918;55.706;37.816;2023-04-24T01:35:50;56.81;51.65;63.64;;
74470;Laerm;62918;55.706;37.816;2023-04-24T01:36:21;60.61;50.62;66.34;;
74470;Laerm;62918;55.706;37.816;2023-04-24T01:36:52;54.78;50.76;61.00;;
74470;Laerm;62918;55.706;37.816;2023-04-24T01:37:23;53.69;50.91;58.54;;
74470;Laerm;62918;55.706;37.816;2023-04-24T01:37:54;52.76;50.37;55.33;;
74470;Laerm;62918;55.706;37.816;2023-04-24T01:38:24;52.54;50.26;54.55;;
74470;Laerm;62918;55.706;37.816;2023-04-24T01:38:55;52.59;50.38;54.93;;
74470;Laerm;62918;55.706;37.816;2023-04-24T01:39:26;53.19;50.79;57.55;;
74470;Laerm;62918;55.706;37.816;2023-04-24T01:39:59;55.69;50.72;61.14;;
74470;Laerm;62918;55.706;37.816;2023-04-24T01:40:30;58.34;51.92;69.63;;
74470;Laerm;62918;55.706;37.816;2023-04-24T01:41:01;55.47;52.04;61.82;;
74470;Laerm;62918;55.706;37.816;2023-04-24T01:41:32;55.16;50.85;61.82;;
74470;Laerm;62918;55.706;37.816;2023-04-24T01:42:04;55.57;51.12;58.91;;
74470;Laerm;62918;55.706;37.816;2023-04-24T01:42:35;56.61;51.24;60.20;;
74470;Laerm;62918;55.706;37.816;2023-04-24T01:43:05;59.38;52.59;68.75;;
74470;Laerm;62918;55.706;37.816;2023-04-24T01:43:36;58.47;51.96;64.71;;
74470;Laerm;62918;55.706;37.816;2023-04-24T01:44:07;58.70;51.66;65.96;;
74470;Laerm;62918;55.706;37.816;2023-04-24T01:44:38;58.58;51.01;66.19;;
74470;Laerm;62918;55.706;37.816;2023-04-24T01:45:11;59.85;50.88;72.05;;
74470;Laerm;62918;55.706;37.816;2023-04-24T01:45:43;62.82;53.45;70.44;;
74470;Laerm;62918;55.706;37.816;2023-04-24T01:46:17;61.07;52.57;66.87;;
74470;Laerm;62918;55.706;37.816;2023-04-24T01:46:47;52.75;49.99;55.05;;
74470;Laerm;62918;55.706;37.816;2023-04-24T01:47:18;65.37;50.08;74.25;;
74470;Laerm;62918;55.706;37.816;2023-04-24T01:47:49;56.49;52.48;60.57;;
74470;Laerm;62918;55.706;37.816;2023-04-24T01:48:20;55.88;52.21;59.89;;
74470;Laerm;62918;55.706;37.816;2023-04-24T01:48:51;52.71;50.38;57.38;;
74470;Laerm;62918;55.706;37.816;2023-04-24T01:49:22;57.94;49.53;68.44;;
74470;Laerm;62918;55.706;37.816;2023-04-24T01:49:53;52.80;50.29;54.94;;
74470;Laerm;62918;55.706;37.816;2023-04-24T01:50:23;54.73;50.28;60.74;;
74470;Laerm;62918;55.706;37.816;2023-04-24T01:50:54;57.14;53.22;61.60;;
74470;Laerm;62918;55.706;37.816;2023-04-24T01:51:25;55.40;51.42;59.98;;
74470;Laerm;62918;55.706;37.816;2023-04-24T01:52:00;56.88;50.80;63.24;;
74470;Laerm;62918;55.706;37.816;2023-04-24T01:52:31;55.37;50.98;60.02;;
74470;Laerm;62918;55.706;37.816;2023-04-24T01:53:03;53.06;50.14;56.75;;
74470;Laerm;62918;55.706;37.816;2023-04-24T01:53:34;55.87;49.71;61.03;;
74470;Laerm;62918;55.706;37.816;2023-04-24T01:54:05;57.11;50.85;62.96;;
74470;Laerm;62918;55.706;37.816;2023-04-24T01:54:36;55.65;51.30;59.85;;
74470;Laerm;62918;55.706;37.816;2023-04-24T01:55:07;54.80;51.08;59.07;;
74470;Laerm;62918;55.706;37.816;2023-04-24T01:55:38;59.32;52.18;65.67;;
74470;Laerm;62918;55.706;37.816;2023-04-24T01:56:08;54.48;51.24;58.18;;
74470;Laerm;62918;55.706;37.816;2023-04-24T01:56:41;57.90;51.97;62.54;;
74470;Laerm;62918;55.706;37.816;2023-04-24T01:57:14;63.01;52.31;71.74;;
74470;Laerm;62918;55.706;37.816;2023-04-24T01:57:46;60.08;52.21;66.32;;
74470;Laerm;62918;55.706;37.816;2023-04-24T01:58:17;56.06;51.11;61.51;;
74470;Laerm;62918;55.706;37.816;2023-04-24T01:58:49;54.82;51.30;61.02;;
74470;Laerm;62918;55.706;37.816;2023-04-24T01:59:20;61.95;50.73;77.15;;
74470;Laerm;62918;55.706;37.816;2023-04-24T01:59:52;57.76;51.26;67.90;;
74470;Laerm;62918;55.706;37.816;2023-04-24T02:00:23;55.35;50.24;61.70;;
74470;Laerm;62918;55.706;37.816;2023-04-24T02:00:56;58.92;50.79;66.73;;
74470;Laerm;62918;55.706;37.816;2023-04-24T02:01:34;55.13;50.74;62.16;;
74470;Laerm;62918;55.706;37.816;2023-04-24T02:02:06;57.14;51.01;65.01;;
74470;Laerm;62918;55.706;37.816;2023-04-24T02:02:37;56.69;50.79;62.04;;
74470;Laerm;62918;55.706;37.816;2023-04-24T02:03:09;59.17;49.80;66.32;;
74470;Laerm;62918;55.706;37.816;2023-04-24T02:03:39;63.04;54.26;76.51;;
74470;Laerm;62918;55.706;37.816;2023-04-24T02:04:10;64.36;57.29;72.99;;
74470;Laerm;62918;55.706;37.816;2023-04-24T02:04:41;61.91;51.49;72.39;;
74470;Laerm;62918;55.706;37.816;2023-04-24T02:05:11;61.38;50.53;68.00;;
74470;Laerm;62918;55.706;37.816;2023-04-24T02:05:44;59.64;51.50;65.17;;
74470;Laerm;62918;55.706;37.816;2023-04-24T02:06:15;55.03;51.24;60.44;;
74470;Laerm;62918;55.706;37.816;2023-04-24T02:06:46;54.80;50.57;59.72;;
74470;Laerm;62918;55.706;37.816;2023-04-24T02:07:16;56.76;51.86;61.35;;
74470;Laerm;62918;55.706;37.816;2023-04-24T02:07:47;61.60;51.94;80.65;;
74470;Laerm;62918;55.706;37.816;2023-04-24T02:08:18;65.51;53.51;72.83;;
74470;Laerm;62918;55.706;37.816;2023-04-24T02:08:48;56.39;49.72;62.39;;
74470;Laerm;62918;55.706;37.816;2023-04-24T02:09:19;58.81;53.67;63.68;;
74470;Laerm;62918;55.706;37.816;2023-04-24T02:09:50;62.81;50.55;69.68;;
74470;Laerm;62918;55.706;37.816;2023-04-24T02:10:20;60.67;53.82;65.54;;
74470;Laerm;62918;55.706;37.816;2023-04-24T02:10:51;63.78;52.81;69.65;;
74470;Laerm;62918;55.706;37.816;2023-04-24T02:11:21;59.31;50.96;67.75;;
74470;Laerm;62918;55.706;37.816;2023-04-24T02:11:52;63.29;58.86;68.42;;
74470;Laerm;62918;55.706;37.816;2023-04-24T02:12:23;64.23;58.20;70.53;;
74470;Laerm;62918;55.706;37.816;2023-04-24T02:12:53;58.48;53.88;63.74;;
74470;Laerm;62918;55.706;37.816;2023-04-24T02:13:24;60.96;56.19;72.17;;
74470;Laerm;62918;55.706;37.816;2023-04-24T02:13:54;64.39;55.07;71.62;;
74470;Laerm;62918;55.706;37.816;2023-04-24T02:14:26;63.60;56.76;72.84;;
74470;Laerm;62918;55.706;37.816;2023-04-24T02:14:56;62.76;56.08;68.08;;
74470;Laerm;62918;55.706;37.816;2023-04-24T02:15:27;65.76;56.95;75.65;;
74470;Laerm;62918;55.706;37.816;2023-04-24T02:15:58;69.39;55.39;76.77;;
74470;Laerm;62918;55.706;37.816;2023-04-24T02:16:49;64.51;58.40;73.39;;
74470;Laerm;62918;55.706;37.816;2023-04-24T02:17:19;65.64;57.94;71.17;;
74470;Laerm;62918;55.706;37.816;2023-04-24T02:17:50;59.67;52.80;67.32;;
74470;Laerm;62918;55.706;37.816;2023-04-24T02:18:20;57.16;50.99;63.86;;
74470;Laerm;62918;55.706;37.816;2023-04-24T02:18:52;57.25;50.41;65.65;;
74470;Laerm;62918;55.706;37.816;2023-04-24T02:19:23;61.63;51.86;68.26;;
74470;Laerm;62918;55.706;37.816;2023-04-24T02:19:54;54.25;49.38;61.75;;
74470;Laerm;62918;55.706;37.816;2023-04-24T02:20:24;52.70;48.91;60.81;;
74470;Laerm;62918;55.706;37.816;2023-04-24T02:20:55;57.14;51.50;61.87;;
74470;Laerm;62918;55.706;37.816;2023-04-24T02:21:26;52.75;48.86;57.06;;
74470;Laerm;62918;55.706;37.816;2023-04-24T02:21:57;58.30;50.44;67.38;;
74470;Laerm;62918;55.706;37.816;2023-04-24T02:22:28;60.57;52.96;66.12;;
74470;Laerm;62918;55.706;37.816;2023-04-24T02:22:58;65.01;60.78;69.23;;
74470;Laerm;62918;55.706;37.816;2023-04-24T02:23:29;58.43;52.13;63.47;;
74470;Laerm;62918;55.706;37.816;2023-04-24T02:23:59;55.39;49.78;62.53;;
74470;Laerm;62918;55.706;37.816;2023-04-24T02:24:30;57.22;52.17;63.62;;
74470;Laerm;62918;55.706;37.816;2023-04-24T02:25:01;63.49;57.47;70.23;;
74470;Laerm;62918;55.706;37.816;2023-04-24T02:25:36;60.54;55.87;65.85;;
74470;Laerm;62918;55.706;37.816;2023-04-24T02:26:07;62.09;56.82;66.12;;
74470;Laerm;62918;55.706;37.816;2023-04-24T02:26:37;61.71;54.93;67.68;;
74470;Laerm;62918;55.706;37.816;2023-04-24T02:27:08;61.84;55.07;67.19;;
74470;Laerm;62918;55.706;37.816;2023-04-24T02:27:38;61.84;55.98;67.81;;
74470;Laerm;62918;55.706;37.816;2023-04-24T02:28:09;62.18;57.02;65.91;;
74470;Laerm;62918;55.706;37.816;2023-04-24T02:28:40;62.40;57.14;67.30;;
74470;Laerm;62918;55.706;37.816;2023-04-24T02:29:10;59.94;53.96;64.80;;
74470;Laerm;62918;55.706;37.816;2023-04-24T02:29:41;63.47;58.23;68.82;;
74470;Laerm;62918;55.706;37.816;2023-04-24T02:30:12;60.37;52.58;67.06;;
74470;Laerm;62918;55.706;37.816;2023-04-24T02:30:42;56.06;50.55;65.02;;
74470;Laerm;62918;55.706;37.816;2023-04-24T02:31:13;56.17;50.52;63.74;;
74470;Laerm;62918;55.706;37.816;2023-04-24T02:31:43;53.78;49.54;60.97;;
74470;Laerm;62918;55.706;37.816;2023-04-24T02:32:14;55.54;49.66;60.85;;
74470;Laerm;62918;55.706;37.816;2023-04-24T02:32:45;56.06;49.78;68.37;;
74470;Laerm;62918;55.706;37.816;2023-04-24T02:33:16;57.77;52.23;63.26;;
74470;Laerm;62918;55.706;37.816;2023-04-24T02:33:47;61.42;56.17;65.84;;
74470;Laerm;62918;55.706;37.816;2023-04-24T02:34:17;66.02;55.57;75.75;;
74470;Laerm;62918;55.706;37.816;2023-04-24T02:34:48;63.25;52.96;74.61;;
74470;Laerm;62918;55.706;37.816;2023-04-24T02:35:19;63.48;53.61;69.98;;
74470;Laerm;62918;55.706;37.816;2023-04-24T02:35:50;61.91;56.69;67.94;;
74470;Laerm;62918;55.706;37.816;2023-04-24T02:36:20;67.59;57.10;76.56;;
74470;Laerm;62918;55.706;37.816;2023-04-24T02:36:51;67.52;57.30;74.82;;
74470;Laerm;62918;55.706;37.816;2023-04-24T02:37:24;58.39;54.52;63.16;;
74470;Laerm;62918;55.706;37.816;2023-04-24T02:37:54;62.34;57.17;67.62;;
74470;Laerm;62918;55.706;37.816;2023-04-24T02:38:25;59.61;54.14;65.92;;
74470;Laerm;62918;55.706;37.816;2023-04-24T02:38:55;63.23;54.40;71.20;;
74470;Laerm;62918;55.706;37.816;2023-04-24T02:39:26;61.34;51.14;72.76;;
74470;Laerm;62918;55.706;37.816;2023-04-24T02:39:57;75.42;54.15;85.45;;
74470;Laerm;62918;55.706;37.816;2023-04-24T02:40:28;61.50;54.34;68.18;;
74470;Laerm;62918;55.706;37.816;2023-04-24T02:40:58;58.02;53.43;63.83;;
74470;Laerm;62918;55.706;37.816;2023-04-24T02:41:30;60.25;55.20;65.61;;
74470;Laerm;62918;55.706;37.816;2023-04-24T02:42:03;62.38;55.29;68.74;;
74470;Laerm;62918;55.706;37.816;2023-04-24T02:42:33;59.74;52.93;65.14;;
74470;Laerm;62918;55.706;37.816;2023-04-24T02:43:04;64.75;56.23;68.04;;
74470;Laerm;62918;55.706;37.816;2023-04-24T02:43:34;62.08;56.86;67.28;;
74470;Laerm;62918;55.706;37.816;2023-04-24T02:44:05;59.82;54.86;67.24;;
74470;Laerm;62918;55.706;37.816;2023-04-24T02:44:35;65.19;57.30;73.28;;
74470;Laerm;62918;55.706;37.816;2023-04-24T02:45:06;56.30;52.43;60.15;;
74470;Laerm;62918;55.706;37.816;2023-04-24T02:45:37;65.96;55.73;72.21;;
74470;Laerm;62918;55.706;37.816;2023-04-24T02:46:08;63.07;56.34;69.73;;
74470;Laerm;62918;55.706;37.816;2023-04-24T02:46:39;59.75;55.23;66.29;;
74470;Laerm;62918;55.706;37.816;2023-04-24T02:47:11;60.43;53.96;66.74;;
74470;Laerm;62918;55.706;37.816;2023-04-24T02:47:42;60.63;53.44;66.04;;
74470;Laerm;62918;55.706;37.816;2023-04-24T02:48:12;62.94;55.95;71.51;;
74470;Laerm;62918;55.706;37.816;2023-04-24T02:48:43;59.24;54.08;64.23;;
74470;Laerm;62918;55.706;37.816;2023-04-24T02:49:13;61.01;53.36;66.28;;
74470;Laerm;62918;55.706;37.816;2023-04-24T02:49:44;59.93;55.53;65.52;;
74470;Laerm;62918;55.706;37.816;2023-04-24T02:50:15;63.40;55.17;69.89;;
74470;Laerm;62918;55.706;37.816;2023-04-24T02:50:46;66.02;55.78;71.01;;
74470;Laerm;62918;55.706;37.816;2023-04-24T02:51:17;63.14;53.57;71.50;;
74470;Laerm;62918;55.706;37.816;2023-04-24T02:51:47;63.83;56.35;70.37;;
74470;Laerm;62918;55.706;37.816;2023-04-24T02:52:18;62.30;55.69;68.33;;